CheckWX is a tool to help pilots better visualize weather data.  It is not intended as a substitute for an official pre-flight weather briefing.

15:17:16 UTC

KMHK METAR
Manhattan Regional Airport
Manhattan, Kansas, USA
Current

25 mins ago

KMHK 231452Z 06007KT 10SM BKN050 OVC070 17/10 A3011 RMK AO2 SLP193 T01720100 51015
Observed
May-23 @ 14:52 UTC
Wind
  • 060° at 7 KTS
Visibility
10 SM
Flight Rules
VFR
Cloud Levels
  • Broken at 5,000' AGL
  • Overcast at 7,000' AGL
Temperature
17°C / 63°F
Dewpoint
10°C / 50°F
Humidity
64%
Altimeter
30.11" Hg
Pressure
1019.62 hPa
Previous

1 hour ago

KMHK 231352Z 06005KT 10SM BKN050 OVC075 16/10 A3010 RMK AO2 SLP191 T01610100
Observed
May-23 @ 13:52 UTC
Wind
  • 060° at 5 KTS
Visibility
10 SM
Flight Rules
VFR
Cloud Levels
  • Broken at 5,000' AGL
  • Overcast at 7,500' AGL
Temperature
16°C / 61°F
Dewpoint
10°C / 50°F
Humidity
68%
Altimeter
30.1" Hg
Pressure
1019.32 hPa
Previous

2 hours ago

KMHK 231252Z 00000KT 10SM SCT065 OVC085 14/12 A3009 RMK AO2 SLP185 T01440117 $
Observed
May-23 @ 12:52 UTC
Visibility
10 SM
Flight Rules
VFR
Cloud Levels
  • Scattered at 6,500' AGL
  • Overcast at 8,500' AGL
Temperature
14°C / 57°F
Dewpoint
12°C / 54°F
Humidity
88%
Altimeter
30.09" Hg
Pressure
1018.92 hPa